Time;durP1;ratioP1;P1;durP2;ratioP2;P2;SDS_P1;SDS_P2;PMS_P1;PMS_P2;Temp;Humidity;BMP_temperature;BMP_pressure;BME280_temperature;BME280_humidity;BME280_pressure;Samples;Min_cycle;Max_cycle;Signal;HPM_P1;HPM_P2
2021/07/11 00:01:53;;;;;;;23.57;18.67;;;;;;;;;;5070176;28;20407;-51
2021/07/11 00:04:19;;;;;;;24.20;20.20;;;;;;;;;;5069821;28;20385;-51
2021/07/11 00:06:45;;;;;;;22.90;20.60;;;;;;;;;;5070041;28;20404;-52
2021/07/11 00:09:12;;;;;;;22.20;19.20;;;;;;;;;;5069994;28;20493;-53
2021/07/11 00:11:38;;;;;;;22.57;18.40;;;;;;;;;;5070047;28;20381;-51
2021/07/11 00:14:04;;;;;;;24.50;18.77;;;;;;;;;;5069799;28;20463;-51
2021/07/11 00:16:34;;;;;;;25.00;19.47;;;;;;;;;;5069965;28;20440;-51
2021/07/11 00:19:00;;;;;;;24.90;20.80;;;;;;;;;;5070385;28;20735;-50
2021/07/11 00:21:26;;;;;;;20.93;18.30;;;;;;;;;;5071165;28;20930;-51
2021/07/11 00:23:52;;;;;;;22.90;18.00;;;;;;;;;;5073476;28;20606;-51
2021/07/11 00:26:18;;;;;;;20.00;17.97;;;;;;;;;;5073310;28;22662;-52
2021/07/11 00:28:44;;;;;;;20.33;16.57;;;;;;;;;;5073604;28;20407;-52
2021/07/11 00:31:10;;;;;;;19.40;17.50;;;;;;;;;;5073376;28;20443;-51
2021/07/11 00:33:36;;;;;;;18.77;16.77;;;;;;;;;;5073099;28;20929;-51
2021/07/11 00:36:03;;;;;;;22.90;17.50;;;;;;;;;;5072833;28;20897;-51
2021/07/11 00:38:28;;;;;;;19.27;16.83;;;;;;;;;;5073234;28;20477;-51
2021/07/11 00:40:55;;;;;;;19.07;16.03;;;;;;;;;;5073179;28;20538;-51
2021/07/11 00:43:21;;;;;;;20.10;16.47;;;;;;;;;;5073158;28;20430;-51
2021/07/11 00:45:47;;;;;;;18.60;16.63;;;;;;;;;;5072671;28;20389;-51
2021/07/11 00:48:13;;;;;;;21.27;17.37;;;;;;;;;;5072965;28;20762;-51
2021/07/11 00:50:39;;;;;;;22.50;18.73;;;;;;;;;;5072839;28;20719;-52
2021/07/11 00:53:09;;;;;;;23.33;20.03;;;;;;;;;;5072901;28;20880;-50
2021/07/11 00:55:36;;;;;;;23.80;21.20;;;;;;;;;;5072564;28;20613;-50
2021/07/11 00:58:02;;;;;;;27.03;21.07;;;;;;;;;;5072835;28;20916;-50
2021/07/11 01:00:28;;;;;;;23.73;21.00;;;;;;;;;;5073002;28;20802;-50
2021/07/11 01:02:57;;;;;;;25.70;21.40;;;;;;;;;;5072006;28;20462;-50
2021/07/11 01:05:26;;;;;;;27.47;21.17;;;;;;;;;;5071912;28;20405;-51
2021/07/11 01:08:05;;;;;;;26.50;19.80;;;;;;;;;;5072566;28;20846;-52
2021/07/11 01:10:35;;;;;;;24.83;21.87;;;;;;;;;;5072530;28;20473;-53
2021/07/11 01:13:02;;;;;;;25.27;19.60;;;;;;;;;;5072557;28;20515;-51
2021/07/11 01:15:29;;;;;;;28.40;22.23;;;;;;;;;;5072355;28;20383;-53
2021/07/11 01:17:59;;;;;;;26.97;22.50;;;;;;;;;;5072199;28;20445;-55
2021/07/11 01:20:36;;;;;;;35.90;23.43;;;;;;;;;;5072445;28;21011;-51
2021/07/11 01:23:04;;;;;;;32.60;24.00;;;;;;;;;;5072196;28;20497;-51
2021/07/11 01:25:34;;;;;;;31.17;23.00;;;;;;;;;;5072085;28;20383;-53
2021/07/11 01:28:02;;;;;;;30.37;23.10;;;;;;;;;;5072028;28;20408;-53
2021/07/11 01:30:28;;;;;;;31.30;22.77;;;;;;;;;;5072238;28;20403;-50
2021/07/11 01:32:55;;;;;;;27.30;21.53;;;;;;;;;;5071045;28;20428;-51
2021/07/11 01:35:21;;;;;;;28.10;22.07;;;;;;;;;;5071884;28;20367;-51
2021/07/11 01:37:47;;;;;;;27.93;22.33;;;;;;;;;;5071842;28;20420;-52
2021/07/11 01:40:14;;;;;;;23.67;19.10;;;;;;;;;;5072077;28;20376;-52
2021/07/11 01:42:40;;;;;;;22.23;19.63;;;;;;;;;;5071742;28;20400;-50
2021/07/11 01:45:07;;;;;;;24.30;18.43;;;;;;;;;;5071730;28;20384;-50
2021/07/11 01:47:33;;;;;;;24.07;18.30;;;;;;;;;;5071779;28;20825;-50
2021/07/11 01:50:00;;;;;;;21.07;16.70;;;;;;;;;;5071817;28;20409;-52
2021/07/11 01:52:26;;;;;;;20.40;18.30;;;;;;;;;;5071585;28;20965;-51
2021/07/11 01:54:53;;;;;;;22.60;17.63;;;;;;;;;;5071533;28;20385;-50
2021/07/11 01:57:19;;;;;;;21.13;17.00;;;;;;;;;;5071512;28;20437;-50
2021/07/11 01:59:45;;;;;;;24.53;18.97;;;;;;;;;;5071745;28;20373;-51
2021/07/11 02:02:11;;;;;;;25.63;18.43;;;;;;;;;;5071559;28;20761;-51
2021/07/11 02:04:37;;;;;;;25.23;19.80;;;;;;;;;;5071518;28;20380;-50
2021/07/11 02:07:03;;;;;;;25.53;20.07;;;;;;;;;;5071365;28;20912;-50
2021/07/11 02:09:29;;;;;;;22.73;18.00;;;;;;;;;;5071518;28;20383;-51
2021/07/11 02:11:56;;;;;;;34.97;21.23;;;;;;;;;;5071286;28;20389;-50
2021/07/11 02:14:25;;;;;;;28.00;19.10;;;;;;;;;;5053270;28;20462;-53
2021/07/11 02:17:03;;;;;;;27.97;21.00;;;;;;;;;;5071311;28;20423;-51
2021/07/11 02:19:29;;;;;;;25.87;20.53;;;;;;;;;;5071600;28;20399;-51
2021/07/11 02:21:55;;;;;;;25.40;17.77;;;;;;;;;;5071430;28;20400;-50
2021/07/11 02:24:22;;;;;;;24.70;17.77;;;;;;;;;;5070840;28;20385;-51
2021/07/11 02:26:49;;;;;;;23.27;16.90;;;;;;;;;;5071137;28;20515;-53
2021/07/11 02:29:15;;;;;;;22.70;16.90;;;;;;;;;;5071030;28;20380;-50
2021/07/11 02:31:42;;;;;;;23.70;16.63;;;;;;;;;;5071114;28;20377;-51
2021/07/11 02:34:08;;;;;;;21.27;15.00;;;;;;;;;;5070610;28;20433;-51
2021/07/11 02:36:34;;;;;;;22.07;16.17;;;;;;;;;;5070972;28;20425;-50
2021/07/11 02:39:04;;;;;;;22.10;16.23;;;;;;;;;;5070869;28;20403;-50
2021/07/11 02:41:32;;;;;;;24.90;18.13;;;;;;;;;;5070958;28;20376;-51
2021/07/11 02:43:59;;;;;;;24.97;17.97;;;;;;;;;;5070311;28;20456;-51
2021/07/11 02:46:27;;;;;;;23.10;16.83;;;;;;;;;;5070819;28;20429;-52
2021/07/11 02:48:54;;;;;;;26.73;16.20;;;;;;;;;;5070686;28;20896;-51
2021/07/11 02:51:22;;;;;;;18.90;13.43;;;;;;;;;;5070761;28;20387;-53
2021/07/11 02:53:49;;;;;;;22.73;16.23;;;;;;;;;;5070305;28;20431;-51
2021/07/11 02:56:17;;;;;;;20.20;14.30;;;;;;;;;;5070680;28;20797;-51
2021/07/11 02:58:44;;;;;;;21.60;15.50;;;;;;;;;;5070632;28;20400;-51
2021/07/11 03:01:10;;;;;;;23.37;15.80;;;;;;;;;;5070710;28;20451;-53
2021/07/11 03:03:36;;;;;;;30.77;17.80;;;;;;;;;;5070374;28;20410;-51
2021/07/11 03:06:03;;;;;;;31.23;18.03;;;;;;;;;;5070324;28;20384;-51
2021/07/11 03:08:29;;;;;;;29.50;16.63;;;;;;;;;;5070496;28;20404;-51
2021/07/11 03:10:57;;;;;;;23.70;17.33;;;;;;;;;;5070640;28;20784;-52
2021/07/11 03:13:23;;;;;;;24.47;17.30;;;;;;;;;;5070385;28;20416;-52
2021/07/11 03:15:50;;;;;;;26.30;16.93;;;;;;;;;;5070282;28;20391;-51
2021/07/11 03:18:17;;;;;;;25.10;17.73;;;;;;;;;;5070382;28;20506;-53
2021/07/11 03:20:46;;;;;;;27.57;16.40;;;;;;;;;;5052267;28;20388;-51
2021/07/11 03:23:12;;;;;;;25.93;18.23;;;;;;;;;;5070535;28;20754;-53
2021/07/11 03:25:38;;;;;;;28.60;17.80;;;;;;;;;;5070089;28;20409;-51
2021/07/11 03:28:06;;;;;;;25.53;17.80;;;;;;;;;;5070380;28;20397;-51
2021/07/11 03:30:37;;;;;;;29.23;18.53;;;;;;;;;;5070369;28;20383;-52
2021/07/11 03:33:03;;;;;;;25.97;17.73;;;;;;;;;;5070338;28;20437;-51
2021/07/11 03:35:34;;;;;;;30.70;18.67;;;;;;;;;;5070021;28;20377;-51
2021/07/11 03:38:00;;;;;;;32.00;19.70;;;;;;;;;;5070446;28;20391;-50
2021/07/11 03:40:28;;;;;;;26.80;18.97;;;;;;;;;;5070247;28;20956;-51
2021/07/11 03:42:56;;;;;;;27.33;18.77;;;;;;;;;;5070431;28;20966;-53
2021/07/11 03:45:22;;;;;;;30.10;18.50;;;;;;;;;;5069930;28;21128;-51
2021/07/11 03:47:56;;;;;;;26.17;18.40;;;;;;;;;;5070254;28;20571;-54
2021/07/11 03:50:24;;;;;;;27.70;18.10;;;;;;;;;;5070280;28;20740;-50
2021/07/11 03:52:56;;;;;;;34.20;21.27;;;;;;;;;;5070306;28;20420;-50
2021/07/11 03:55:22;;;;;;;32.83;19.87;;;;;;;;;;5069997;28;20385;-50
2021/07/11 03:57:49;;;;;;;31.67;18.87;;;;;;;;;;5073764;28;20604;-51
2021/07/11 04:00:16;;;;;;;25.40;18.07;;;;;;;;;;5073863;28;20893;-51
2021/07/11 04:02:46;;;;;;;29.10;18.27;;;;;;;;;;5074070;28;20377;-51
2021/07/11 04:05:12;;;;;;;29.03;18.27;;;;;;;;;;5073610;28;20438;-51
2021/07/11 04:07:39;;;;;;;30.00;19.10;;;;;;;;;;5073859;28;20470;-51
2021/07/11 04:10:05;;;;;;;34.80;20.40;;;;;;;;;;5073707;28;20375;-51
2021/07/11 04:12:32;;;;;;;27.27;20.27;;;;;;;;;;5073696;28;20431;-51
2021/07/11 04:14:58;;;;;;;30.30;19.00;;;;;;;;;;5073299;28;20385;-50
2021/07/11 04:17:26;;;;;;;33.60;19.97;;;;;;;;;;5072704;28;20869;-51
2021/07/11 04:19:55;;;;;;;28.80;18.50;;;;;;;;;;5072218;28;20389;-51
2021/07/11 04:22:23;;;;;;;33.67;19.10;;;;;;;;;;5072370;28;20401;-53
2021/07/11 04:24:50;;;;;;;30.40;19.40;;;;;;;;;;5071914;28;20378;-51
2021/07/11 04:27:16;;;;;;;29.47;20.03;;;;;;;;;;5072146;28;20401;-51
2021/07/11 04:29:42;;;;;;;28.57;20.83;;;;;;;;;;5072256;28;20425;-51
2021/07/11 04:32:10;;;;;;;31.20;20.50;;;;;;;;;;5072068;28;20401;-51
2021/07/11 04:34:37;;;;;;;32.80;21.60;;;;;;;;;;5071893;28;20460;-53
2021/07/11 04:37:05;;;;;;;42.77;22.53;;;;;;;;;;5072031;28;20819;-50
2021/07/11 04:39:31;;;;;;;33.90;21.40;;;;;;;;;;5072096;28;20473;-51
2021/07/11 04:41:57;;;;;;;32.50;20.57;;;;;;;;;;5071902;28;20456;-51
2021/07/11 04:44:28;;;;;;;35.63;20.80;;;;;;;;;;5071748;28;20375;-51
2021/07/11 04:46:54;;;;;;;33.27;21.70;;;;;;;;;;5071791;28;20495;-53
2021/07/11 04:49:22;;;;;;;41.53;22.33;;;;;;;;;;5071962;28;20406;-50
2021/07/11 04:51:48;;;;;;;28.83;20.90;;;;;;;;;;5071787;28;20440;-53
2021/07/11 04:54:14;;;;;;;34.03;21.80;;;;;;;;;;5071551;28;20863;-53
2021/07/11 04:56:40;;;;;;;33.03;21.03;;;;;;;;;;5071536;28;20428;-51
2021/07/11 04:59:06;;;;;;;32.30;21.80;;;;;;;;;;5071789;28;20452;-51
2021/07/11 05:01:32;;;;;;;34.53;21.47;;;;;;;;;;5071609;28;20394;-51
2021/07/11 05:03:58;;;;;;;30.60;21.80;;;;;;;;;;5071459;28;20399;-51
2021/07/11 05:06:24;;;;;;;31.37;20.80;;;;;;;;;;5071501;28;20445;-51
2021/07/11 05:08:50;;;;;;;33.13;22.43;;;;;;;;;;5071565;28;20415;-51
2021/07/11 05:11:17;;;;;;;26.83;20.50;;;;;;;;;;5071533;28;20405;-51
2021/07/11 05:13:43;;;;;;;26.27;19.03;;;;;;;;;;5071307;28;20452;-51
2021/07/11 05:16:09;;;;;;;29.20;21.27;;;;;;;;;;5034671;28;1038663;-51
2021/07/11 05:18:35;;;;;;;25.87;20.57;;;;;;;;;;5072508;28;20388;-51
2021/07/11 05:21:01;;;;;;;27.30;20.23;;;;;;;;;;5072300;28;20388;-51
2021/07/11 05:23:27;;;;;;;28.03;19.50;;;;;;;;;;5072395;28;20370;-52
2021/07/11 05:25:53;;;;;;;30.60;20.90;;;;;;;;;;5072082;28;20870;-53
2021/07/11 05:28:19;;;;;;;29.67;21.00;;;;;;;;;;5072115;28;20419;-51
2021/07/11 05:30:45;;;;;;;26.73;19.20;;;;;;;;;;5072249;28;20818;-51
2021/07/11 05:33:11;;;;;;;27.27;20.10;;;;;;;;;;5072071;28;20497;-51
2021/07/11 05:35:37;;;;;;;29.57;20.30;;;;;;;;;;5071946;28;20839;-50
2021/07/11 05:38:04;;;;;;;32.53;22.73;;;;;;;;;;5071907;28;20431;-51
2021/07/11 05:40:30;;;;;;;31.80;21.57;;;;;;;;;;5072086;28;20492;-50
2021/07/11 05:42:56;;;;;;;27.97;21.50;;;;;;;;;;5072748;28;20407;-51
2021/07/11 05:45:22;;;;;;;31.47;21.00;;;;;;;;;;5071751;28;20375;-51
2021/07/11 05:47:48;;;;;;;27.80;20.93;;;;;;;;;;5071722;28;20405;-51
2021/07/11 05:50:14;;;;;;;28.73;20.50;;;;;;;;;;5071998;28;20438;-51
2021/07/11 05:52:41;;;;;;;31.90;20.90;;;;;;;;;;5071636;28;20408;-51
2021/07/11 05:55:07;;;;;;;30.77;21.33;;;;;;;;;;5071825;28;20390;-51
2021/07/11 05:57:34;;;;;;;30.70;20.87;;;;;;;;;;5071577;28;20420;-51
2021/07/11 06:00:00;;;;;;;28.93;21.33;;;;;;;;;;5071722;28;20365;-52
2021/07/11 06:02:27;;;;;;;33.00;21.00;;;;;;;;;;5071627;28;20486;-54
2021/07/11 06:04:53;;;;;;;30.40;20.53;;;;;;;;;;5071451;28;20373;-51
2021/07/11 06:07:19;;;;;;;31.40;21.53;;;;;;;;;;5071373;28;20448;-50
2021/07/11 06:09:45;;;;;;;28.17;19.37;;;;;;;;;;5071626;28;20884;-51
2021/07/11 06:12:11;;;;;;;26.33;20.97;;;;;;;;;;5071423;28;20377;-51
2021/07/11 06:14:37;;;;;;;30.07;20.87;;;;;;;;;;5071110;28;20917;-51
2021/07/11 06:17:03;;;;;;;31.40;21.80;;;;;;;;;;5071107;28;20437;-51
2021/07/11 06:19:29;;;;;;;28.63;20.53;;;;;;;;;;5070852;28;20375;-50
2021/07/11 06:21:55;;;;;;;30.67;22.20;;;;;;;;;;5071155;28;20766;-50
2021/07/11 06:24:21;;;;;;;32.70;21.60;;;;;;;;;;5070809;28;20432;-51
2021/07/11 06:26:47;;;;;;;26.73;20.60;;;;;;;;;;5071113;28;20401;-51
2021/07/11 06:29:13;;;;;;;29.30;20.47;;;;;;;;;;5071042;28;20436;-51
2021/07/11 06:31:39;;;;;;;28.80;21.80;;;;;;;;;;5071061;28;20885;-51
2021/07/11 06:34:05;;;;;;;28.03;21.30;;;;;;;;;;5070615;28;20443;-51
2021/07/11 06:36:31;;;;;;;29.43;20.37;;;;;;;;;;5070946;28;20397;-52
2021/07/11 06:38:58;;;;;;;29.37;21.83;;;;;;;;;;5071089;28;20389;-51
2021/07/11 06:41:24;;;;;;;27.03;20.60;;;;;;;;;;5071002;28;20900;-50
2021/07/11 06:43:50;;;;;;;26.53;20.50;;;;;;;;;;5070571;28;20485;-51
2021/07/11 06:46:16;;;;;;;25.03;19.67;;;;;;;;;;5070802;28;20497;-51
2021/07/11 06:48:42;;;;;;;26.40;20.03;;;;;;;;;;5070781;28;20426;-51
2021/07/11 06:51:08;;;;;;;25.10;19.50;;;;;;;;;;5070758;28;20910;-51
2021/07/11 06:53:35;;;;;;;28.50;20.90;;;;;;;;;;5070576;28;20499;-55
2021/07/11 06:56:01;;;;;;;25.43;19.70;;;;;;;;;;5070526;28;20425;-53
2021/07/11 06:58:27;;;;;;;23.50;20.53;;;;;;;;;;5052614;28;20388;-51
2021/07/11 07:00:53;;;;;;;25.30;21.40;;;;;;;;;;5070680;28;20883;-53
2021/07/11 07:03:19;;;;;;;21.77;19.40;;;;;;;;;;5070577;28;20808;-51
2021/07/11 07:05:45;;;;;;;25.53;21.00;;;;;;;;;;5070390;28;20367;-51
2021/07/11 07:08:11;;;;;;;32.63;22.80;;;;;;;;;;5070466;28;20395;-51
2021/07/11 07:10:37;;;;;;;25.77;22.00;;;;;;;;;;5070618;28;20452;-51
2021/07/11 07:13:03;;;;;;;28.67;21.80;;;;;;;;;;5070520;28;20786;-51
2021/07/11 07:15:29;;;;;;;30.87;24.10;;;;;;;;;;5070162;28;20371;-51
2021/07/11 07:17:55;;;;;;;29.57;22.80;;;;;;;;;;5070357;28;20772;-51
2021/07/11 07:20:21;;;;;;;27.17;22.47;;;;;;;;;;5070308;28;20401;-52
2021/07/11 07:22:47;;;;;;;31.20;23.70;;;;;;;;;;5070495;28;20926;-51
2021/07/11 07:25:14;;;;;;;32.77;24.23;;;;;;;;;;5070139;28;20380;-50
2021/07/11 07:27:40;;;;;;;25.90;23.07;;;;;;;;;;5070377;28;20420;-51
2021/07/11 07:30:07;;;;;;;29.60;23.67;;;;;;;;;;5070311;28;20405;-51
2021/07/11 07:32:33;;;;;;;28.07;22.30;;;;;;;;;;5073644;28;20397;-51
2021/07/11 07:34:59;;;;;;;25.47;21.53;;;;;;;;;;5074096;28;20467;-52
2021/07/11 07:37:25;;;;;;;27.10;21.97;;;;;;;;;;5074408;28;20480;-52
2021/07/11 07:39:51;;;;;;;26.20;21.23;;;;;;;;;;5074241;28;20417;-50
2021/07/11 07:42:17;;;;;;;25.13;21.60;;;;;;;;;;5074369;28;20411;-52
2021/07/11 07:44:44;;;;;;;29.80;21.70;;;;;;;;;;5073865;28;20404;-50
2021/07/11 07:47:10;;;;;;;24.00;21.27;;;;;;;;;;5074213;28;20521;-50
2021/07/11 07:49:36;;;;;;;22.83;20.30;;;;;;;;;;5074057;28;20446;-51
2021/07/11 07:52:02;;;;;;;25.60;22.70;;;;;;;;;;5074202;28;20400;-51
2021/07/11 07:54:28;;;;;;;24.87;21.57;;;;;;;;;;5073744;28;20997;-53
2021/07/11 07:56:55;;;;;;;21.73;19.23;;;;;;;;;;5074058;28;20519;-54
2021/07/11 07:59:21;;;;;;;23.13;19.50;;;;;;;;;;5074151;28;20920;-52
2021/07/11 08:01:47;;;;;;;26.73;22.57;;;;;;;;;;5073934;28;20396;-51
2021/07/11 08:04:13;;;;;;;22.93;20.47;;;;;;;;;;5074333;28;20485;-51
2021/07/11 08:06:39;;;;;;;35.07;30.60;;;;;;;;;;5073984;28;20422;-51
2021/07/11 08:09:05;;;;;;;23.40;20.27;;;;;;;;;;5074172;28;20411;-51
2021/07/11 08:11:32;;;;;;;21.10;18.90;;;;;;;;;;5073982;28;20414;-51
2021/07/11 08:13:58;;;;;;;24.57;20.83;;;;;;;;;;5073671;28;20451;-50
2021/07/11 08:16:24;;;;;;;24.00;21.07;;;;;;;;;;5073565;28;20784;-50
2021/07/11 08:18:50;;;;;;;23.73;21.27;;;;;;;;;;5073848;28;20829;-50
2021/07/11 08:21:16;;;;;;;21.63;19.20;;;;;;;;;;5073587;28;20895;-51
2021/07/11 08:23:42;;;;;;;23.70;21.20;;;;;;;;;;5073548;28;20473;-50
2021/07/11 08:26:08;;;;;;;26.77;22.80;;;;;;;;;;5073381;28;20896;-50
2021/07/11 08:28:34;;;;;;;24.40;19.00;;;;;;;;;;5073536;28;20400;-51
2021/07/11 08:31:00;;;;;;;21.40;19.10;;;;;;;;;;5073581;28;20400;-50
2021/07/11 08:33:26;;;;;;;20.03;17.90;;;;;;;;;;5073426;28;20467;-51
2021/07/11 08:35:52;;;;;;;19.80;18.00;;;;;;;;;;5073014;28;20950;-50
2021/07/11 08:38:18;;;;;;;23.67;19.50;;;;;;;;;;5073230;28;21007;-51
2021/07/11 08:40:45;;;;;;;20.60;18.50;;;;;;;;;;5073161;28;20913;-53
2021/07/11 08:43:11;;;;;;;22.30;19.97;;;;;;;;;;5072771;28;20416;-50
2021/07/11 08:45:37;;;;;;;24.77;18.90;;;;;;;;;;5072680;28;20409;-51
2021/07/11 08:48:04;;;;;;;20.80;18.60;;;;;;;;;;5073124;28;20940;-50
2021/07/11 08:50:32;;;;;;;21.80;19.50;;;;;;;;;;5073173;28;20408;-53
2021/07/11 08:52:58;;;;;;;21.37;19.13;;;;;;;;;;5072956;28;20543;-51
2021/07/11 08:55:25;;;;;;;21.80;19.60;;;;;;;;;;5072726;28;20407;-50
2021/07/11 08:57:56;;;;;;;20.83;18.47;;;;;;;;;;5072717;28;20508;-50
2021/07/11 09:00:24;;;;;;;23.30;20.83;;;;;;;;;;5072831;28;20503;-51
2021/07/11 09:02:50;;;;;;;21.57;18.80;;;;;;;;;;5072803;28;20393;-50
2021/07/11 09:05:26;;;;;;;22.17;18.73;;;;;;;;;;5072612;28;20478;-51
2021/07/11 09:08:01;;;;;;;21.30;19.20;;;;;;;;;;5072595;28;20447;-52
2021/07/11 09:10:31;;;;;;;25.90;21.80;;;;;;;;;;5070185;28;20404;-50
2021/07/11 09:12:57;;;;;;;25.00;21.20;;;;;;;;;;5051948;28;20474;-51
2021/07/11 09:15:34;;;;;;;23.67;21.07;;;;;;;;;;5052357;28;20425;-50
2021/07/11 09:18:00;;;;;;;23.70;21.20;;;;;;;;;;5052249;28;20448;-50
2021/07/11 09:20:27;;;;;;;25.03;21.70;;;;;;;;;;5052501;28;20404;-53
2021/07/11 09:23:00;;;;;;;24.63;21.97;;;;;;;;;;5052301;28;20495;-52
2021/07/11 09:25:27;;;;;;;26.90;23.70;;;;;;;;;;5052041;28;20401;-53
2021/07/11 09:27:53;;;;;;;29.60;23.70;;;;;;;;;;5052118;28;20421;-51
2021/07/11 09:30:19;;;;;;;30.10;25.77;;;;;;;;;;5052257;28;20412;-50
2021/07/11 09:32:45;;;;;;;32.17;27.03;;;;;;;;;;5052026;28;20401;-49
2021/07/11 09:35:12;;;;;;;33.23;26.00;;;;;;;;;;5051954;28;20402;-49
2021/07/11 09:37:40;;;;;;;34.80;26.60;;;;;;;;;;5051789;28;20416;-49
2021/07/11 09:40:07;;;;;;;35.57;27.63;;;;;;;;;;5052088;28;20965;-48
2021/07/11 09:42:34;;;;;;;33.60;26.47;;;;;;;;;;5051905;28;20404;-51
2021/07/11 09:45:01;;;;;;;32.43;26.37;;;;;;;;;;5051995;28;20404;-49
2021/07/11 09:47:28;;;;;;;35.50;29.07;;;;;;;;;;5052017;28;20435;-51
2021/07/11 09:50:01;;;;;;;33.60;27.87;;;;;;;;;;5052048;28;20435;-49
2021/07/11 09:52:29;;;;;;;37.83;26.87;;;;;;;;;;5052116;28;20439;-50
2021/07/11 09:55:07;;;;;;;31.87;26.73;;;;;;;;;;5050879;28;20519;-51
2021/07/11 09:57:35;;;;;;;32.87;25.00;;;;;;;;;;5051883;28;20523;-52
2021/07/11 10:00:02;;;;;;;34.10;28.47;;;;;;;;;;5051790;28;20768;-49
2021/07/11 10:02:28;;;;;;;68.33;50.00;;;;;;;;;;5051895;28;20408;-49
2021/07/11 10:04:54;;;;;;;31.50;27.17;;;;;;;;;;5051264;28;20432;-48
2021/07/11 10:07:20;;;;;;;30.87;24.97;;;;;;;;;;5051720;28;20479;-48
2021/07/11 10:09:46;;;;;;;35.57;25.93;;;;;;;;;;5051411;28;20408;-49
2021/07/11 10:12:12;;;;;;;36.43;28.00;;;;;;;;;;5051527;28;20411;-49
2021/07/11 10:14:39;;;;;;;37.43;27.93;;;;;;;;;;5050927;28;20962;-48
2021/07/11 10:17:05;;;;;;;38.60;26.23;;;;;;;;;;5051100;28;20982;-48
2021/07/11 10:19:32;;;;;;;40.90;29.43;;;;;;;;;;5051098;28;20398;-48
2021/07/11 10:21:58;;;;;;;35.30;26.60;;;;;;;;;;5051244;28;20402;-50
2021/07/11 10:24:24;;;;;;;38.30;28.70;;;;;;;;;;5050962;28;20465;-52
2021/07/11 10:26:50;;;;;;;40.20;29.03;;;;;;;;;;5051088;28;20436;-50
2021/07/11 10:29:17;;;;;;;37.50;27.07;;;;;;;;;;5051189;28;20458;-50
2021/07/11 10:31:45;;;;;;;35.97;27.50;;;;;;;;;;5050999;28;20409;-49
2021/07/11 10:34:11;;;;;;;35.93;25.93;;;;;;;;;;5050688;28;20452;-48
2021/07/11 10:36:42;;;;;;;39.83;28.03;;;;;;;;;;5050839;28;20519;-48
2021/07/11 10:39:09;;;;;;;43.10;32.00;;;;;;;;;;5051016;28;20385;-49
2021/07/11 10:41:45;;;;;;;38.07;28.33;;;;;;;;;;5050829;28;20901;-48
2021/07/11 10:44:13;;;;;;;39.70;26.73;;;;;;;;;;5050645;28;20401;-49
2021/07/11 10:46:41;;;;;;;38.93;25.13;;;;;;;;;;5050614;28;20422;-51
2021/07/11 10:49:18;;;;;;;32.53;25.47;;;;;;;;;;5050874;28;20412;-48
2021/07/11 10:51:45;;;;;;;31.70;24.70;;;;;;;;;;5050700;28;20413;-49
2021/07/11 10:54:18;;;;;;;29.17;24.30;;;;;;;;;;5050424;28;20453;-48
2021/07/11 10:56:44;;;;;;;30.97;22.07;;;;;;;;;;5050482;28;20427;-50
2021/07/11 10:59:10;;;;;;;29.17;21.33;;;;;;;;;;5050713;28;20432;-50
2021/07/11 11:01:40;;;;;;;28.07;21.93;;;;;;;;;;5050592;28;20776;-48
2021/07/11 11:04:16;;;;;;;30.37;23.37;;;;;;;;;;5050420;28;20412;-48
2021/07/11 11:06:42;;;;;;;27.70;21.90;;;;;;;;;;5050422;28;20435;-48
2021/07/11 11:09:08;;;;;;;28.20;23.67;;;;;;;;;;5050529;28;20401;-48
2021/07/11 11:11:34;;;;;;;31.43;22.37;;;;;;;;;;5050877;28;20785;-49
2021/07/11 11:14:04;;;;;;;28.13;22.57;;;;;;;;;;5050360;28;20828;-48
2021/07/11 11:16:40;;;;;;;28.70;22.53;;;;;;;;;;5050281;28;20440;-48
2021/07/11 11:19:13;;;;;;;27.20;20.80;;;;;;;;;;5050606;28;20389;-48
2021/07/11 11:21:39;;;;;;;25.50;20.30;;;;;;;;;;5050408;28;20401;-50
2021/07/11 11:24:04;;;;;;;25.77;20.30;;;;;;;;;;5050141;28;20416;-49
2021/07/11 11:26:31;;;;;;;24.53;20.33;;;;;;;;;;5050294;28;20476;-48
2021/07/11 11:28:58;;;;;;;34.20;28.90;;;;;;;;;;5050476;28;20405;-48
2021/07/11 11:31:25;;;;;;;32.83;27.80;;;;;;;;;;5050339;28;20436;-49
2021/07/11 11:34:00;;;;;;;32.50;27.87;;;;;;;;;;5050129;28;20449;-48
2021/07/11 11:36:35;;;;;;;31.67;27.53;;;;;;;;;;5050230;28;20466;-48
2021/07/11 11:39:14;;;;;;;30.40;27.03;;;;;;;;;;5050483;28;20527;-51
2021/07/11 11:41:41;;;;;;;31.20;25.57;;;;;;;;;;5050863;28;20401;-51
2021/07/11 11:44:09;;;;;;;30.57;23.40;;;;;;;;;;5050522;28;20405;-50
2021/07/11 11:46:35;;;;;;;29.80;24.10;;;;;;;;;;5050478;28;20797;-48
2021/07/11 11:49:05;;;;;;;26.63;23.80;;;;;;;;;;5050273;28;20406;-48
2021/07/11 11:51:31;;;;;;;24.83;22.23;;;;;;;;;;5050246;28;20401;-48
2021/07/11 11:53:57;;;;;;;26.30;21.00;;;;;;;;;;5049719;28;20456;-48
2021/07/11 11:56:23;;;;;;;25.13;22.13;;;;;;;;;;5050134;28;20512;-48
2021/07/11 11:58:57;;;;;;;29.30;21.97;;;;;;;;;;5049917;28;20907;-48
2021/07/11 12:01:29;;;;;;;22.60;20.20;;;;;;;;;;5050119;28;20393;-48
2021/07/11 12:03:55;;;;;;;20.00;17.73;;;;;;;;;;5049757;28;20410;-48
2021/07/11 12:06:22;;;;;;;20.23;18.13;;;;;;;;;;5050227;28;20436;-49
2021/07/11 12:08:49;;;;;;;17.37;15.70;;;;;;;;;;5049789;28;20467;-49
2021/07/11 12:11:15;;;;;;;18.67;16.57;;;;;;;;;;5049960;28;20404;-49
2021/07/11 12:13:41;;;;;;;17.80;16.00;;;;;;;;;;5049528;28;20448;-51
2021/07/11 12:16:14;;;;;;;16.17;14.60;;;;;;;;;;5049625;28;20404;-50
2021/07/11 12:18:47;;;;;;;16.77;15.07;;;;;;;;;;5052966;28;20427;-49
2021/07/11 12:21:29;;;;;;;16.43;14.40;;;;;;;;;;5053604;28;20451;-50
2021/07/11 12:23:56;;;;;;;15.43;12.90;;;;;;;;;;5053278;28;20401;-49
2021/07/11 12:26:23;;;;;;;15.33;13.83;;;;;;;;;;5053342;28;20435;-50
2021/07/11 12:28:53;;;;;;;16.10;14.60;;;;;;;;;;5053471;28;20431;-51
2021/07/11 12:31:23;;;;;;;15.43;13.47;;;;;;;;;;5053389;28;20940;-52
2021/07/11 12:33:55;;;;;;;15.50;14.00;;;;;;;;;;5052882;28;21053;-53
2021/07/11 12:36:21;;;;;;;14.77;13.27;;;;;;;;;;5053291;28;20450;-51
2021/07/11 12:38:47;;;;;;;15.13;13.77;;;;;;;;;;5053059;28;20405;-51
2021/07/11 12:41:13;;;;;;;14.47;13.03;;;;;;;;;;5053072;28;20409;-52
2021/07/11 12:43:46;;;;;;;15.37;14.03;;;;;;;;;;5053317;28;20405;-51
2021/07/11 12:46:16;;;;;;;14.57;13.07;;;;;;;;;;5052875;28;20417;-51
2021/07/11 12:48:46;;;;;;;14.47;12.97;;;;;;;;;;5053232;28;20880;-51
2021/07/11 12:51:13;;;;;;;14.90;13.57;;;;;;;;;;5052929;28;20424;-52
2021/07/11 12:53:40;;;;;;;13.10;11.80;;;;;;;;;;5052792;28;20448;-53
2021/07/11 12:56:06;;;;;;;13.37;12.17;;;;;;;;;;5034866;28;20421;-51
2021/07/11 12:58:36;;;;;;;14.47;13.03;;;;;;;;;;5053100;28;20772;-51
2021/07/11 13:01:05;;;;;;;18.07;13.43;;;;;;;;;;5052828;28;20492;-51
2021/07/11 13:03:31;;;;;;;14.03;12.80;;;;;;;;;;5052849;28;20413;-53
2021/07/11 13:05:59;;;;;;;14.07;12.87;;;;;;;;;;5052450;28;20436;-54
2021/07/11 13:08:25;;;;;;;13.00;11.90;;;;;;;;;;5052751;28;20429;-51
2021/07/11 13:10:51;;;;;;;13.43;12.10;;;;;;;;;;5052838;28;20416;-51
2021/07/11 13:13:17;;;;;;;13.80;12.57;;;;;;;;;;5052757;28;20445;-51
2021/07/11 13:15:43;;;;;;;12.83;11.53;;;;;;;;;;5052363;28;20409;-51
2021/07/11 13:18:11;;;;;;;11.97;11.00;;;;;;;;;;5052515;28;20448;-51
2021/07/11 13:20:38;;;;;;;11.70;10.70;;;;;;;;;;5052375;28;20433;-51
2021/07/11 13:23:04;;;;;;;11.57;10.67;;;;;;;;;;5052572;28;20479;-53
2021/07/11 13:25:30;;;;;;;12.90;11.70;;;;;;;;;;5052190;28;20409;-52
2021/07/11 13:27:56;;;;;;;12.37;11.20;;;;;;;;;;5052047;28;20433;-52
2021/07/11 13:30:26;;;;;;;13.23;12.03;;;;;;;;;;5051464;28;20494;-51
2021/07/11 13:32:56;;;;;;;11.57;10.47;;;;;;;;;;5052291;28;20412;-51
2021/07/11 13:35:23;;;;;;;11.77;10.70;;;;;;;;;;5051746;28;20416;-52
2021/07/11 13:37:49;;;;;;;12.03;11.13;;;;;;;;;;5052164;28;20421;-51
2021/07/11 13:40:17;;;;;;;11.53;10.60;;;;;;;;;;5052197;28;20972;-51
2021/07/11 13:42:43;;;;;;;12.57;11.57;;;;;;;;;;5052004;28;20499;-52
2021/07/11 13:45:10;;;;;;;11.13;10.23;;;;;;;;;;5051800;28;20404;-52
2021/07/11 13:47:36;;;;;;;12.70;11.60;;;;;;;;;;5051844;28;20421;-51
2021/07/11 13:50:06;;;;;;;12.83;11.57;;;;;;;;;;5051946;28;20405;-53
2021/07/11 13:52:32;;;;;;;12.67;10.80;;;;;;;;;;5051841;28;20412;-51
2021/07/11 13:54:59;;;;;;;12.10;11.10;;;;;;;;;;5051633;28;20464;-51
2021/07/11 13:57:25;;;;;;;12.20;11.20;;;;;;;;;;5051617;28;20463;-53
2021/07/11 13:59:51;;;;;;;12.67;11.47;;;;;;;;;;5051816;28;20926;-51
2021/07/11 14:02:19;;;;;;;12.37;11.27;;;;;;;;;;5051530;28;20410;-51
2021/07/11 14:04:45;;;;;;;11.20;10.33;;;;;;;;;;5051361;28;20414;-53
2021/07/11 14:07:11;;;;;;;12.10;11.10;;;;;;;;;;5051452;28;20942;-52
2021/07/11 14:09:37;;;;;;;11.80;10.70;;;;;;;;;;5051587;28;20416;-51
2021/07/11 14:12:03;;;;;;;11.70;10.70;;;;;;;;;;5051436;28;20419;-51
2021/07/11 14:14:29;;;;;;;11.40;10.40;;;;;;;;;;5051188;28;20463;-51
2021/07/11 14:16:55;;;;;;;13.37;12.17;;;;;;;;;;5051072;28;20437;-51